sensor_id;sensor_type;location;lat;lon;timestamp;P1;durP1;ratioP1;P2;durP2;ratioP2
17921;SDS011;9086;50.966;3.144;2023-07-29T00:01:44;3.05;;;2.03;;
17921;SDS011;9086;50.966;3.144;2023-07-29T00:04:10;3.17;;;2.25;;
17921;SDS011;9086;50.966;3.144;2023-07-29T00:06:36;4.30;;;1.95;;
17921;SDS011;9086;50.966;3.144;2023-07-29T00:09:02;3.10;;;2.30;;
17921;SDS011;9086;50.966;3.144;2023-07-29T00:11:28;3.42;;;2.45;;
17921;SDS011;9086;50.966;3.144;2023-07-29T00:13:55;3.33;;;2.28;;
17921;SDS011;9086;50.966;3.144;2023-07-29T00:16:21;3.45;;;2.38;;
17921;SDS011;9086;50.966;3.144;2023-07-29T00:18:47;2.70;;;2.47;;
17921;SDS011;9086;50.966;3.144;2023-07-29T00:21:13;3.10;;;2.50;;
17921;SDS011;9086;50.966;3.144;2023-07-29T00:23:40;3.67;;;2.42;;
17921;SDS011;9086;50.966;3.144;2023-07-29T00:26:06;2.92;;;2.60;;
17921;SDS011;9086;50.966;3.144;2023-07-29T00:28:32;4.93;;;2.45;;
17921;SDS011;9086;50.966;3.144;2023-07-29T00:30:58;3.83;;;3.03;;
17921;SDS011;9086;50.966;3.144;2023-07-29T00:33:24;3.83;;;2.97;;
17921;SDS011;9086;50.966;3.144;2023-07-29T00:35:50;4.00;;;3.05;;
17921;SDS011;9086;50.966;3.144;2023-07-29T00:38:16;4.05;;;2.92;;
17921;SDS011;9086;50.966;3.144;2023-07-29T00:40:45;5.10;;;2.75;;
17921;SDS011;9086;50.966;3.144;2023-07-29T00:43:11;4.45;;;3.00;;
17921;SDS011;9086;50.966;3.144;2023-07-29T00:45:37;3.85;;;2.72;;
17921;SDS011;9086;50.966;3.144;2023-07-29T00:48:04;5.00;;;3.00;;
17921;SDS011;9086;50.966;3.144;2023-07-29T00:50:31;4.72;;;3.10;;
17921;SDS011;9086;50.966;3.144;2023-07-29T00:52:58;4.20;;;3.00;;
17921;SDS011;9086;50.966;3.144;2023-07-29T00:55:24;5.03;;;3.28;;
17921;SDS011;9086;50.966;3.144;2023-07-29T00:57:50;5.47;;;3.15;;
17921;SDS011;9086;50.966;3.144;2023-07-29T01:00:19;4.45;;;2.97;;
17921;SDS011;9086;50.966;3.144;2023-07-29T01:02:46;4.07;;;3.60;;
17921;SDS011;9086;50.966;3.144;2023-07-29T01:05:12;4.72;;;3.05;;
17921;SDS011;9086;50.966;3.144;2023-07-29T01:07:47;4.00;;;3.42;;
17921;SDS011;9086;50.966;3.144;2023-07-29T01:15:20;3.20;;;2.90;;
17921;SDS011;9086;50.966;3.144;2023-07-29T01:17:49;5.07;;;3.05;;
17921;SDS011;9086;50.966;3.144;2023-07-29T01:20:19;3.80;;;3.05;;
17921;SDS011;9086;50.966;3.144;2023-07-29T01:22:45;4.18;;;2.75;;
17921;SDS011;9086;50.966;3.144;2023-07-29T01:25:12;3.70;;;2.63;;
17921;SDS011;9086;50.966;3.144;2023-07-29T01:27:39;3.42;;;2.80;;
17921;SDS011;9086;50.966;3.144;2023-07-29T01:30:05;5.43;;;2.72;;
17921;SDS011;9086;50.966;3.144;2023-07-29T01:37:24;4.07;;;3.00;;
17921;SDS011;9086;50.966;3.144;2023-07-29T01:39:51;3.65;;;3.15;;
17921;SDS011;9086;50.966;3.144;2023-07-29T01:42:19;4.32;;;3.30;;
17921;SDS011;9086;50.966;3.144;2023-07-29T01:44:45;6.00;;;2.88;;
17921;SDS011;9086;50.966;3.144;2023-07-29T01:47:11;3.28;;;2.85;;
17921;SDS011;9086;50.966;3.144;2023-07-29T01:49:37;4.45;;;2.78;;
17921;SDS011;9086;50.966;3.144;2023-07-29T01:52:03;3.38;;;3.08;;
17921;SDS011;9086;50.966;3.144;2023-07-29T01:54:29;3.80;;;2.80;;
17921;SDS011;9086;50.966;3.144;2023-07-29T01:56:55;4.30;;;3.03;;
17921;SDS011;9086;50.966;3.144;2023-07-29T01:59:21;4.67;;;2.90;;
17921;SDS011;9086;50.966;3.144;2023-07-29T02:01:47;4.03;;;3.07;;
17921;SDS011;9086;50.966;3.144;2023-07-29T02:04:13;5.30;;;2.77;;
17921;SDS011;9086;50.966;3.144;2023-07-29T02:06:39;4.35;;;2.67;;
17921;SDS011;9086;50.966;3.144;2023-07-29T02:09:05;4.47;;;2.97;;
17921;SDS011;9086;50.966;3.144;2023-07-29T02:11:32;2.88;;;2.25;;
17921;SDS011;9086;50.966;3.144;2023-07-29T02:13:58;3.65;;;3.03;;
17921;SDS011;9086;50.966;3.144;2023-07-29T02:16:23;3.23;;;2.93;;
17921;SDS011;9086;50.966;3.144;2023-07-29T02:18:50;5.33;;;2.80;;
17921;SDS011;9086;50.966;3.144;2023-07-29T02:21:16;3.83;;;2.80;;
17921;SDS011;9086;50.966;3.144;2023-07-29T02:23:42;6.70;;;2.60;;
17921;SDS011;9086;50.966;3.144;2023-07-29T02:26:08;5.25;;;2.70;;
17921;SDS011;9086;50.966;3.144;2023-07-29T02:28:34;3.83;;;3.05;;
17921;SDS011;9086;50.966;3.144;2023-07-29T02:33:36;3.38;;;2.80;;
17921;SDS011;9086;50.966;3.144;2023-07-29T02:36:02;4.15;;;2.78;;
17921;SDS011;9086;50.966;3.144;2023-07-29T02:38:28;3.95;;;2.97;;
17921;SDS011;9086;50.966;3.144;2023-07-29T02:40:54;4.05;;;3.05;;
17921;SDS011;9086;50.966;3.144;2023-07-29T02:43:19;3.13;;;2.83;;
17921;SDS011;9086;50.966;3.144;2023-07-29T02:45:45;6.85;;;3.17;;
17921;SDS011;9086;50.966;3.144;2023-07-29T02:48:11;3.45;;;2.90;;
17921;SDS011;9086;50.966;3.144;2023-07-29T02:50:37;3.78;;;2.50;;
17921;SDS011;9086;50.966;3.144;2023-07-29T02:53:03;3.53;;;2.72;;
17921;SDS011;9086;50.966;3.144;2023-07-29T02:55:30;4.22;;;2.95;;
17921;SDS011;9086;50.966;3.144;2023-07-29T02:57:56;3.10;;;2.70;;
17921;SDS011;9086;50.966;3.144;2023-07-29T03:00:22;6.30;;;2.80;;
17921;SDS011;9086;50.966;3.144;2023-07-29T03:02:49;4.40;;;3.42;;
17921;SDS011;9086;50.966;3.144;2023-07-29T03:05:15;3.90;;;2.80;;
17921;SDS011;9086;50.966;3.144;2023-07-29T03:07:41;2.53;;;2.17;;
17921;SDS011;9086;50.966;3.144;2023-07-29T03:10:07;3.57;;;3.10;;
17921;SDS011;9086;50.966;3.144;2023-07-29T03:12:33;3.17;;;2.90;;
17921;SDS011;9086;50.966;3.144;2023-07-29T03:14:59;3.28;;;2.95;;
17921;SDS011;9086;50.966;3.144;2023-07-29T03:17:25;3.30;;;2.58;;
17921;SDS011;9086;50.966;3.144;2023-07-29T03:19:51;3.17;;;2.88;;
17921;SDS011;9086;50.966;3.144;2023-07-29T03:22:17;3.10;;;2.80;;
17921;SDS011;9086;50.966;3.144;2023-07-29T03:24:43;3.50;;;2.85;;
17921;SDS011;9086;50.966;3.144;2023-07-29T03:27:09;4.30;;;2.92;;
17921;SDS011;9086;50.966;3.144;2023-07-29T03:29:35;3.10;;;2.80;;
17921;SDS011;9086;50.966;3.144;2023-07-29T03:32:01;2.88;;;2.47;;
17921;SDS011;9086;50.966;3.144;2023-07-29T03:34:28;2.70;;;2.50;;
17921;SDS011;9086;50.966;3.144;2023-07-29T03:36:54;4.32;;;2.67;;
17921;SDS011;9086;50.966;3.144;2023-07-29T03:39:20;6.28;;;2.92;;
17921;SDS011;9086;50.966;3.144;2023-07-29T03:41:45;4.75;;;3.03;;
17921;SDS011;9086;50.966;3.144;2023-07-29T03:44:11;5.13;;;3.20;;
17921;SDS011;9086;50.966;3.144;2023-07-29T03:46:37;2.95;;;2.72;;
17921;SDS011;9086;50.966;3.144;2023-07-29T03:49:03;4.13;;;2.92;;
17921;SDS011;9086;50.966;3.144;2023-07-29T03:51:29;4.97;;;2.80;;
17921;SDS011;9086;50.966;3.144;2023-07-29T03:53:55;3.23;;;2.97;;
17921;SDS011;9086;50.966;3.144;2023-07-29T03:56:21;4.10;;;3.17;;
17921;SDS011;9086;50.966;3.144;2023-07-29T03:58:47;5.05;;;3.17;;
17921;SDS011;9086;50.966;3.144;2023-07-29T04:01:14;3.50;;;3.20;;
17921;SDS011;9086;50.966;3.144;2023-07-29T04:03:40;4.70;;;3.40;;
17921;SDS011;9086;50.966;3.144;2023-07-29T04:06:06;4.13;;;3.40;;
17921;SDS011;9086;50.966;3.144;2023-07-29T04:08:32;4.27;;;3.23;;
17921;SDS011;9086;50.966;3.144;2023-07-29T04:10:58;3.50;;;2.93;;
17921;SDS011;9086;50.966;3.144;2023-07-29T04:13:24;3.60;;;3.30;;
17921;SDS011;9086;50.966;3.144;2023-07-29T04:15:50;4.00;;;2.87;;
17921;SDS011;9086;50.966;3.144;2023-07-29T04:18:16;5.53;;;3.40;;
17921;SDS011;9086;50.966;3.144;2023-07-29T04:20:43;3.90;;;3.50;;
17921;SDS011;9086;50.966;3.144;2023-07-29T04:23:09;5.90;;;3.60;;
17921;SDS011;9086;50.966;3.144;2023-07-29T04:25:35;3.27;;;2.97;;
17921;SDS011;9086;50.966;3.144;2023-07-29T04:28:01;5.70;;;3.60;;
17921;SDS011;9086;50.966;3.144;2023-07-29T04:30:28;4.23;;;3.37;;
17921;SDS011;9086;50.966;3.144;2023-07-29T04:32:54;3.70;;;3.30;;
17921;SDS011;9086;50.966;3.144;2023-07-29T04:35:20;3.50;;;3.10;;
17921;SDS011;9086;50.966;3.144;2023-07-29T04:37:46;5.17;;;3.70;;
17921;SDS011;9086;50.966;3.144;2023-07-29T04:40:13;3.47;;;3.17;;
17921;SDS011;9086;50.966;3.144;2023-07-29T04:42:39;5.40;;;3.47;;
17921;SDS011;9086;50.966;3.144;2023-07-29T04:45:05;3.78;;;3.15;;
17921;SDS011;9086;50.966;3.144;2023-07-29T04:47:31;4.30;;;3.10;;
17921;SDS011;9086;50.966;3.144;2023-07-29T04:49:57;4.97;;;2.90;;
17921;SDS011;9086;50.966;3.144;2023-07-29T04:52:24;3.37;;;2.90;;
17921;SDS011;9086;50.966;3.144;2023-07-29T04:54:50;3.40;;;2.90;;
17921;SDS011;9086;50.966;3.144;2023-07-29T04:57:16;3.33;;;2.93;;
17921;SDS011;9086;50.966;3.144;2023-07-29T04:59:42;3.47;;;3.17;;
17921;SDS011;9086;50.966;3.144;2023-07-29T05:02:08;4.93;;;3.17;;
17921;SDS011;9086;50.966;3.144;2023-07-29T05:04:34;5.57;;;2.95;;
17921;SDS011;9086;50.966;3.144;2023-07-29T05:07:00;3.47;;;3.05;;
17921;SDS011;9086;50.966;3.144;2023-07-29T05:09:26;2.70;;;2.43;;
17921;SDS011;9086;50.966;3.144;2023-07-29T05:11:52;3.40;;;2.83;;
17921;SDS011;9086;50.966;3.144;2023-07-29T05:14:18;3.23;;;2.80;;
17921;SDS011;9086;50.966;3.144;2023-07-29T05:16:44;4.20;;;2.70;;
17921;SDS011;9086;50.966;3.144;2023-07-29T05:19:10;3.47;;;3.00;;
17921;SDS011;9086;50.966;3.144;2023-07-29T05:21:37;3.60;;;2.30;;
17921;SDS011;9086;50.966;3.144;2023-07-29T05:24:03;2.37;;;2.17;;
17921;SDS011;9086;50.966;3.144;2023-07-29T05:26:29;2.88;;;2.63;;
17921;SDS011;9086;50.966;3.144;2023-07-29T05:28:55;2.55;;;2.03;;
17921;SDS011;9086;50.966;3.144;2023-07-29T05:31:21;3.67;;;2.67;;
17921;SDS011;9086;50.966;3.144;2023-07-29T05:33:48;4.97;;;2.57;;
17921;SDS011;9086;50.966;3.144;2023-07-29T05:36:14;3.10;;;2.30;;
17921;SDS011;9086;50.966;3.144;2023-07-29T05:38:40;2.87;;;2.40;;
17921;SDS011;9086;50.966;3.144;2023-07-29T05:41:06;2.17;;;1.97;;
17921;SDS011;9086;50.966;3.144;2023-07-29T05:43:32;2.23;;;2.00;;
17921;SDS011;9086;50.966;3.144;2023-07-29T05:45:58;2.37;;;2.17;;
17921;SDS011;9086;50.966;3.144;2023-07-29T05:48:24;1.97;;;1.87;;
17921;SDS011;9086;50.966;3.144;2023-07-29T05:50:50;2.20;;;1.90;;
17921;SDS011;9086;50.966;3.144;2023-07-29T05:53:16;1.80;;;1.70;;
17921;SDS011;9086;50.966;3.144;2023-07-29T05:55:42;1.70;;;1.60;;
17921;SDS011;9086;50.966;3.144;2023-07-29T05:58:08;2.08;;;1.80;;
17921;SDS011;9086;50.966;3.144;2023-07-29T06:00:34;2.33;;;1.90;;
17921;SDS011;9086;50.966;3.144;2023-07-29T06:03:00;4.63;;;1.63;;
17921;SDS011;9086;50.966;3.144;2023-07-29T06:05:26;3.30;;;1.80;;
17921;SDS011;9086;50.966;3.144;2023-07-29T06:07:53;2.30;;;1.80;;
17921;SDS011;9086;50.966;3.144;2023-07-29T06:10:19;2.20;;;1.80;;
17921;SDS011;9086;50.966;3.144;2023-07-29T06:12:45;2.10;;;1.90;;
17921;SDS011;9086;50.966;3.144;2023-07-29T06:15:12;2.30;;;2.00;;
17921;SDS011;9086;50.966;3.144;2023-07-29T06:17:38;2.37;;;2.17;;
17921;SDS011;9086;50.966;3.144;2023-07-29T06:20:04;1.90;;;1.80;;
17921;SDS011;9086;50.966;3.144;2023-07-29T06:22:31;2.13;;;1.57;;
17921;SDS011;9086;50.966;3.144;2023-07-29T06:24:57;2.73;;;1.90;;
17921;SDS011;9086;50.966;3.144;2023-07-29T06:27:23;2.77;;;2.23;;
17921;SDS011;9086;50.966;3.144;2023-07-29T06:29:50;3.22;;;2.05;;
17921;SDS011;9086;50.966;3.144;2023-07-29T06:32:16;3.30;;;1.77;;
17921;SDS011;9086;50.966;3.144;2023-07-29T06:34:42;4.13;;;1.90;;
17921;SDS011;9086;50.966;3.144;2023-07-29T06:37:08;4.20;;;2.08;;
17921;SDS011;9086;50.966;3.144;2023-07-29T06:39:34;2.15;;;1.95;;
17921;SDS011;9086;50.966;3.144;2023-07-29T06:42:00;3.55;;;1.70;;
17921;SDS011;9086;50.966;3.144;2023-07-29T06:44:27;1.85;;;1.75;;
17921;SDS011;9086;50.966;3.144;2023-07-29T06:46:53;2.80;;;1.83;;
17921;SDS011;9086;50.966;3.144;2023-07-29T06:49:19;2.15;;;1.95;;
17921;SDS011;9086;50.966;3.144;2023-07-29T06:51:45;2.95;;;2.03;;
17921;SDS011;9086;50.966;3.144;2023-07-29T06:54:11;3.20;;;2.20;;
17921;SDS011;9086;50.966;3.144;2023-07-29T06:56:37;2.88;;;2.22;;
17921;SDS011;9086;50.966;3.144;2023-07-29T06:59:03;3.95;;;2.38;;
17921;SDS011;9086;50.966;3.144;2023-07-29T07:01:29;2.53;;;2.10;;
17921;SDS011;9086;50.966;3.144;2023-07-29T07:03:55;2.42;;;1.90;;
17921;SDS011;9086;50.966;3.144;2023-07-29T07:06:23;3.28;;;1.92;;
17921;SDS011;9086;50.966;3.144;2023-07-29T07:08:50;2.55;;;2.05;;
17921;SDS011;9086;50.966;3.144;2023-07-29T07:11:16;5.03;;;2.00;;
17921;SDS011;9086;50.966;3.144;2023-07-29T07:13:41;2.05;;;1.85;;
17921;SDS011;9086;50.966;3.144;2023-07-29T07:16:07;2.35;;;1.98;;
17921;SDS011;9086;50.966;3.144;2023-07-29T07:18:33;1.80;;;1.60;;
17921;SDS011;9086;50.966;3.144;2023-07-29T07:20:59;2.28;;;2.08;;
17921;SDS011;9086;50.966;3.144;2023-07-29T07:23:25;3.08;;;2.00;;
17921;SDS011;9086;50.966;3.144;2023-07-29T07:25:51;2.75;;;2.05;;
17921;SDS011;9086;50.966;3.144;2023-07-29T07:28:17;1.65;;;1.55;;
17921;SDS011;9086;50.966;3.144;2023-07-29T07:30:43;1.85;;;1.70;;
17921;SDS011;9086;50.966;3.144;2023-07-29T07:33:09;2.72;;;1.80;;
17921;SDS011;9086;50.966;3.144;2023-07-29T07:35:35;1.92;;;1.58;;
17921;SDS011;9086;50.966;3.144;2023-07-29T07:38:01;3.05;;;1.90;;
17921;SDS011;9086;50.966;3.144;2023-07-29T07:40:29;2.70;;;1.70;;
17921;SDS011;9086;50.966;3.144;2023-07-29T07:42:55;2.85;;;2.00;;
17921;SDS011;9086;50.966;3.144;2023-07-29T07:45:21;2.60;;;1.77;;
17921;SDS011;9086;50.966;3.144;2023-07-29T07:47:47;2.28;;;1.95;;
17921;SDS011;9086;50.966;3.144;2023-07-29T07:50:13;1.65;;;1.55;;
17921;SDS011;9086;50.966;3.144;2023-07-29T07:52:39;4.95;;;2.63;;
17921;SDS011;9086;50.966;3.144;2023-07-29T07:55:05;1.70;;;1.60;;
17921;SDS011;9086;50.966;3.144;2023-07-29T07:57:31;5.85;;;2.22;;
17921;SDS011;9086;50.966;3.144;2023-07-29T07:59:57;3.58;;;1.77;;
17921;SDS011;9086;50.966;3.144;2023-07-29T08:02:23;5.38;;;2.33;;
17921;SDS011;9086;50.966;3.144;2023-07-29T08:04:49;2.95;;;2.08;;
17921;SDS011;9086;50.966;3.144;2023-07-29T08:07:15;2.35;;;1.73;;
17921;SDS011;9086;50.966;3.144;2023-07-29T08:09:41;3.15;;;2.38;;
17921;SDS011;9086;50.966;3.144;2023-07-29T08:12:07;2.65;;;1.70;;
17921;SDS011;9086;50.966;3.144;2023-07-29T08:14:34;3.13;;;1.92;;
17921;SDS011;9086;50.966;3.144;2023-07-29T08:16:59;4.65;;;2.28;;
17921;SDS011;9086;50.966;3.144;2023-07-29T08:19:26;3.50;;;2.38;;
17921;SDS011;9086;50.966;3.144;2023-07-29T08:21:52;2.45;;;2.25;;
17921;SDS011;9086;50.966;3.144;2023-07-29T08:24:18;2.63;;;2.38;;
17921;SDS011;9086;50.966;3.144;2023-07-29T08:26:44;3.65;;;2.22;;
17921;SDS011;9086;50.966;3.144;2023-07-29T08:29:11;2.65;;;2.03;;
17921;SDS011;9086;50.966;3.144;2023-07-29T08:31:37;2.80;;;2.45;;
17921;SDS011;9086;50.966;3.144;2023-07-29T08:34:03;2.20;;;2.00;;
17921;SDS011;9086;50.966;3.144;2023-07-29T08:36:29;2.15;;;1.95;;
17921;SDS011;9086;50.966;3.144;2023-07-29T08:38:55;2.13;;;1.98;;
17921;SDS011;9086;50.966;3.144;2023-07-29T08:41:25;2.88;;;2.03;;
17921;SDS011;9086;50.966;3.144;2023-07-29T08:43:53;2.53;;;1.85;;
17921;SDS011;9086;50.966;3.144;2023-07-29T08:46:21;2.50;;;2.00;;
17921;SDS011;9086;50.966;3.144;2023-07-29T08:48:47;2.60;;;2.15;;
17921;SDS011;9086;50.966;3.144;2023-07-29T08:51:14;2.40;;;1.80;;
17921;SDS011;9086;50.966;3.144;2023-07-29T08:53:41;2.22;;;2.00;;
17921;SDS011;9086;50.966;3.144;2023-07-29T08:56:07;4.05;;;2.20;;
17921;SDS011;9086;50.966;3.144;2023-07-29T08:58:33;2.00;;;1.80;;
17921;SDS011;9086;50.966;3.144;2023-07-29T09:01:00;3.17;;;1.80;;
17921;SDS011;9086;50.966;3.144;2023-07-29T09:03:26;2.97;;;2.42;;
17921;SDS011;9086;50.966;3.144;2023-07-29T09:05:52;4.30;;;2.42;;
17921;SDS011;9086;50.966;3.144;2023-07-29T09:08:19;2.67;;;2.47;;
17921;SDS011;9086;50.966;3.144;2023-07-29T09:10:46;3.17;;;2.78;;
17921;SDS011;9086;50.966;3.144;2023-07-29T09:13:12;2.40;;;2.08;;
17921;SDS011;9086;50.966;3.144;2023-07-29T09:15:38;2.67;;;2.35;;
17921;SDS011;9086;50.966;3.144;2023-07-29T09:18:11;2.20;;;2.00;;
17921;SDS011;9086;50.966;3.144;2023-07-29T09:20:37;2.25;;;1.90;;
17921;SDS011;9086;50.966;3.144;2023-07-29T09:23:06;2.13;;;1.95;;
17921;SDS011;9086;50.966;3.144;2023-07-29T09:25:33;2.38;;;2.17;;
17921;SDS011;9086;50.966;3.144;2023-07-29T09:28:00;4.00;;;1.98;;
17921;SDS011;9086;50.966;3.144;2023-07-29T09:30:26;2.70;;;1.75;;
17921;SDS011;9086;50.966;3.144;2023-07-29T09:32:56;2.50;;;2.17;;
17921;SDS011;9086;50.966;3.144;2023-07-29T09:35:22;1.73;;;1.48;;
17921;SDS011;9086;50.966;3.144;2023-07-29T09:37:48;3.33;;;2.00;;
17921;SDS011;9086;50.966;3.144;2023-07-29T09:40:15;3.85;;;1.80;;
17921;SDS011;9086;50.966;3.144;2023-07-29T09:42:47;3.90;;;2.30;;
17921;SDS011;9086;50.966;3.144;2023-07-29T09:45:18;3.20;;;2.90;;
17921;SDS011;9086;50.966;3.144;2023-07-29T09:47:45;2.17;;;2.08;;
17921;SDS011;9086;50.966;3.144;2023-07-29T09:50:11;2.25;;;1.98;;
17921;SDS011;9086;50.966;3.144;2023-07-29T09:52:37;2.35;;;1.70;;
17921;SDS011;9086;50.966;3.144;2023-07-29T09:55:04;2.00;;;1.90;;
17921;SDS011;9086;50.966;3.144;2023-07-29T09:57:31;2.85;;;2.38;;
17921;SDS011;9086;50.966;3.144;2023-07-29T09:59:57;2.40;;;2.20;;
17921;SDS011;9086;50.966;3.144;2023-07-29T10:02:23;2.30;;;2.10;;
17921;SDS011;9086;50.966;3.144;2023-07-29T10:04:52;2.35;;;2.15;;
17921;SDS011;9086;50.966;3.144;2023-07-29T10:07:18;2.15;;;1.92;;
17921;SDS011;9086;50.966;3.144;2023-07-29T10:09:45;1.88;;;1.77;;
17921;SDS011;9086;50.966;3.144;2023-07-29T10:12:11;2.25;;;2.05;;
17921;SDS011;9086;50.966;3.144;2023-07-29T10:14:38;2.45;;;2.28;;
17921;SDS011;9086;50.966;3.144;2023-07-29T10:17:04;2.90;;;2.70;;
17921;SDS011;9086;50.966;3.144;2023-07-29T10:19:30;3.22;;;2.70;;
17921;SDS011;9086;50.966;3.144;2023-07-29T10:21:58;3.03;;;2.83;;
17921;SDS011;9086;50.966;3.144;2023-07-29T10:24:30;3.95;;;3.75;;
17921;SDS011;9086;50.966;3.144;2023-07-29T10:27:00;2.95;;;2.75;;
17921;SDS011;9086;50.966;3.144;2023-07-29T10:29:32;3.60;;;3.38;;
17921;SDS011;9086;50.966;3.144;2023-07-29T10:32:01;3.58;;;3.28;;
17921;SDS011;9086;50.966;3.144;2023-07-29T10:34:29;2.95;;;2.72;;
17921;SDS011;9086;50.966;3.144;2023-07-29T10:36:55;3.17;;;2.95;;
17921;SDS011;9086;50.966;3.144;2023-07-29T10:39:23;4.32;;;2.75;;
17921;SDS011;9086;50.966;3.144;2023-07-29T10:41:56;2.75;;;2.55;;
17921;SDS011;9086;50.966;3.144;2023-07-29T10:47:13;3.97;;;2.92;;
17921;SDS011;9086;50.966;3.144;2023-07-29T10:49:43;3.28;;;2.97;;
17921;SDS011;9086;50.966;3.144;2023-07-29T10:52:12;3.85;;;2.65;;
17921;SDS011;9086;50.966;3.144;2023-07-29T10:57:12;3.88;;;2.45;;
17921;SDS011;9086;50.966;3.144;2023-07-29T10:59:39;2.70;;;2.20;;
17921;SDS011;9086;50.966;3.144;2023-07-29T11:02:12;2.60;;;2.40;;
17921;SDS011;9086;50.966;3.144;2023-07-29T11:04:47;6.25;;;2.47;;
17921;SDS011;9086;50.966;3.144;2023-07-29T11:14:53;8.68;;;1.65;;
17921;SDS011;9086;50.966;3.144;2023-07-29T11:17:19;2.38;;;1.83;;
17921;SDS011;9086;50.966;3.144;2023-07-29T11:19:45;1.52;;;1.30;;
17921;SDS011;9086;50.966;3.144;2023-07-29T11:22:12;1.17;;;1.02;;
17921;SDS011;9086;50.966;3.144;2023-07-29T11:24:38;1.13;;;1.02;;
17921;SDS011;9086;50.966;3.144;2023-07-29T11:27:11;1.90;;;1.17;;
17921;SDS011;9086;50.966;3.144;2023-07-29T11:29:37;1.20;;;1.10;;
17921;SDS011;9086;50.966;3.144;2023-07-29T11:32:03;2.45;;;1.40;;
17921;SDS011;9086;50.966;3.144;2023-07-29T11:34:32;1.38;;;1.00;;
17921;SDS011;9086;50.966;3.144;2023-07-29T11:36:58;2.28;;;1.20;;
17921;SDS011;9086;50.966;3.144;2023-07-29T11:39:24;2.28;;;1.33;;
17921;SDS011;9086;50.966;3.144;2023-07-29T11:41:50;1.50;;;1.10;;
17921;SDS011;9086;50.966;3.144;2023-07-29T11:44:16;2.00;;;1.45;;
17921;SDS011;9086;50.966;3.144;2023-07-29T11:46:43;2.60;;;1.23;;
17921;SDS011;9086;50.966;3.144;2023-07-29T11:49:09;1.83;;;1.25;;
17921;SDS011;9086;50.966;3.144;2023-07-29T11:51:38;1.88;;;1.25;;
17921;SDS011;9086;50.966;3.144;2023-07-29T11:54:04;1.90;;;1.05;;
17921;SDS011;9086;50.966;3.144;2023-07-29T11:56:30;2.15;;;1.20;;
17921;SDS011;9086;50.966;3.144;2023-07-29T11:58:58;1.40;;;1.30;;
17921;SDS011;9086;50.966;3.144;2023-07-29T12:01:24;1.88;;;1.00;;
17921;SDS011;9086;50.966;3.144;2023-07-29T12:03:50;1.45;;;1.25;;
17921;SDS011;9086;50.966;3.144;2023-07-29T12:06:16;2.47;;;1.23;;
17921;SDS011;9086;50.966;3.144;2023-07-29T12:08:42;0.90;;;0.90;;
17921;SDS011;9086;50.966;3.144;2023-07-29T12:11:09;1.55;;;1.27;;
17921;SDS011;9086;50.966;3.144;2023-07-29T12:13:38;1.30;;;0.98;;
17921;SDS011;9086;50.966;3.144;2023-07-29T12:16:04;1.98;;;1.20;;
17921;SDS011;9086;50.966;3.144;2023-07-29T12:18:32;1.08;;;0.88;;
17921;SDS011;9086;50.966;3.144;2023-07-29T12:20:59;1.00;;;0.90;;
17921;SDS011;9086;50.966;3.144;2023-07-29T12:23:25;1.05;;;0.95;;
17921;SDS011;9086;50.966;3.144;2023-07-29T12:25:51;1.42;;;1.00;;
17921;SDS011;9086;50.966;3.144;2023-07-29T12:28:17;0.90;;;0.90;;
17921;SDS011;9086;50.966;3.144;2023-07-29T12:30:43;0.90;;;0.88;;
17921;SDS011;9086;50.966;3.144;2023-07-29T12:33:09;2.60;;;1.20;;
17921;SDS011;9086;50.966;3.144;2023-07-29T12:35:39;3.22;;;1.50;;
17921;SDS011;9086;50.966;3.144;2023-07-29T12:38:05;2.90;;;1.20;;
17921;SDS011;9086;50.966;3.144;2023-07-29T12:40:31;2.17;;;1.20;;
17921;SDS011;9086;50.966;3.144;2023-07-29T12:42:57;2.20;;;1.00;;
17921;SDS011;9086;50.966;3.144;2023-07-29T12:45:23;1.48;;;1.38;;
17921;SDS011;9086;50.966;3.144;2023-07-29T12:47:51;2.15;;;1.55;;
17921;SDS011;9086;50.966;3.144;2023-07-29T12:50:18;0.90;;;0.90;;
17921;SDS011;9086;50.966;3.144;2023-07-29T12:52:44;1.10;;;1.10;;
17921;SDS011;9086;50.966;3.144;2023-07-29T12:55:10;1.08;;;1.08;;
17921;SDS011;9086;50.966;3.144;2023-07-29T12:57:38;1.20;;;1.20;;
17921;SDS011;9086;50.966;3.144;2023-07-29T13:00:05;1.55;;;1.05;;
17921;SDS011;9086;50.966;3.144;2023-07-29T13:02:31;3.08;;;1.13;;
17921;SDS011;9086;50.966;3.144;2023-07-29T13:04:57;1.80;;;1.40;;
17921;SDS011;9086;50.966;3.144;2023-07-29T13:07:23;1.15;;;1.15;;
17921;SDS011;9086;50.966;3.144;2023-07-29T13:09:49;2.47;;;1.33;;
17921;SDS011;9086;50.966;3.144;2023-07-29T13:12:15;2.15;;;1.85;;
17921;SDS011;9086;50.966;3.144;2023-07-29T13:14:41;1.70;;;1.40;;
17921;SDS011;9086;50.966;3.144;2023-07-29T13:17:07;1.90;;;1.80;;
17921;SDS011;9086;50.966;3.144;2023-07-29T13:19:33;1.50;;;1.40;;
17921;SDS011;9086;50.966;3.144;2023-07-29T13:21:59;2.53;;;1.33;;
17921;SDS011;9086;50.966;3.144;2023-07-29T13:24:27;0.88;;;0.88;;
17921;SDS011;9086;50.966;3.144;2023-07-29T13:26:53;0.80;;;0.80;;
17921;SDS011;9086;50.966;3.144;2023-07-29T13:29:19;0.63;;;0.63;;
17921;SDS011;9086;50.966;3.144;2023-07-29T13:31:45;0.60;;;0.60;;
17921;SDS011;9086;50.966;3.144;2023-07-29T13:34:11;0.50;;;0.50;;
17921;SDS011;9086;50.966;3.144;2023-07-29T13:36:38;0.60;;;0.60;;
17921;SDS011;9086;50.966;3.144;2023-07-29T13:39:04;0.60;;;0.60;;
17921;SDS011;9086;50.966;3.144;2023-07-29T13:41:30;2.75;;;0.60;;
17921;SDS011;9086;50.966;3.144;2023-07-29T13:43:56;1.13;;;0.60;;
17921;SDS011;9086;50.966;3.144;2023-07-29T13:46:22;0.75;;;0.52;;
17921;SDS011;9086;50.966;3.144;2023-07-29T13:48:48;1.60;;;0.68;;
17921;SDS011;9086;50.966;3.144;2023-07-29T13:51:14;0.60;;;0.60;;
17921;SDS011;9086;50.966;3.144;2023-07-29T13:53:40;0.70;;;0.70;;
17921;SDS011;9086;50.966;3.144;2023-07-29T13:56:06;0.68;;;0.60;;
17921;SDS011;9086;50.966;3.144;2023-07-29T13:58:32;0.73;;;0.73;;
17921;SDS011;9086;50.966;3.144;2023-07-29T14:00:58;1.25;;;0.70;;
17921;SDS011;9086;50.966;3.144;2023-07-29T14:03:24;1.08;;;0.88;;
17921;SDS011;9086;50.966;3.144;2023-07-29T14:05:50;1.08;;;0.80;;
17921;SDS011;9086;50.966;3.144;2023-07-29T14:08:16;1.55;;;1.10;;
17921;SDS011;9086;50.966;3.144;2023-07-29T14:10:42;2.40;;;1.15;;
17921;SDS011;9086;50.966;3.144;2023-07-29T14:13:08;1.23;;;1.00;;
17921;SDS011;9086;50.966;3.144;2023-07-29T14:15:34;1.38;;;1.08;;
17921;SDS011;9086;50.966;3.144;2023-07-29T14:18:00;1.83;;;1.10;;
17921;SDS011;9086;50.966;3.144;2023-07-29T14:20:27;2.85;;;1.38;;
17921;SDS011;9086;50.966;3.144;2023-07-29T14:22:53;1.92;;;1.42;;
17921;SDS011;9086;50.966;3.144;2023-07-29T14:25:19;2.95;;;1.10;;
17921;SDS011;9086;50.966;3.144;2023-07-29T14:27:45;3.88;;;1.40;;
17921;SDS011;9086;50.966;3.144;2023-07-29T14:30:11;3.22;;;1.40;;
17921;SDS011;9086;50.966;3.144;2023-07-29T14:32:37;2.65;;;1.30;;
17921;SDS011;9086;50.966;3.144;2023-07-29T14:35:03;3.15;;;1.65;;
17921;SDS011;9086;50.966;3.144;2023-07-29T14:37:30;3.70;;;1.70;;
17921;SDS011;9086;50.966;3.144;2023-07-29T14:39:56;2.90;;;1.20;;
17921;SDS011;9086;50.966;3.144;2023-07-29T14:42:22;4.75;;;1.65;;
17921;SDS011;9086;50.966;3.144;2023-07-29T14:44:48;5.82;;;2.38;;
17921;SDS011;9086;50.966;3.144;2023-07-29T14:47:14;3.10;;;1.42;;
17921;SDS011;9086;50.966;3.144;2023-07-29T14:49:40;2.85;;;1.58;;
17921;SDS011;9086;50.966;3.144;2023-07-29T14:52:07;4.35;;;1.83;;
17921;SDS011;9086;50.966;3.144;2023-07-29T14:54:33;4.25;;;1.63;;
17921;SDS011;9086;50.966;3.144;2023-07-29T14:56:59;3.45;;;1.55;;
17921;SDS011;9086;50.966;3.144;2023-07-29T14:59:25;5.88;;;1.77;;
17921;SDS011;9086;50.966;3.144;2023-07-29T15:01:51;4.43;;;1.85;;
17921;SDS011;9086;50.966;3.144;2023-07-29T15:04:17;5.47;;;1.58;;
17921;SDS011;9086;50.966;3.144;2023-07-29T15:06:43;5.40;;;1.75;;
17921;SDS011;9086;50.966;3.144;2023-07-29T15:09:09;4.55;;;1.80;;
17921;SDS011;9086;50.966;3.144;2023-07-29T15:11:35;6.93;;;2.28;;
17921;SDS011;9086;50.966;3.144;2023-07-29T15:14:01;5.18;;;1.77;;
17921;SDS011;9086;50.966;3.144;2023-07-29T15:16:28;3.97;;;1.50;;
17921;SDS011;9086;50.966;3.144;2023-07-29T15:18:54;6.15;;;1.85;;
17921;SDS011;9086;50.966;3.144;2023-07-29T15:21:20;5.60;;;1.48;;